Time;durP1;ratioP1;P1;durP2;ratioP2;P2;SDS_P1;SDS_P2;PMS_P1;PMS_P2;Temp;Humidity;BMP_temperature;BMP_pressure;BME280_temperature;BME280_humidity;BME280_pressure;Samples;Min_cycle;Max_cycle;Signal;HPM_P1;HPM_P2
2022/01/27 00:03:34;;;;;;;18.55;7.00;;;2.00;99.90;;;;;;10425933;28;20053;-60
2022/01/27 00:14:00;;;;;;;22.75;7.15;;;1.90;99.90;;;;;;10422367;28;20044;-59
2022/01/27 00:19:02;;;;;;;22.98;7.45;;;2.00;99.90;;;;;;10424264;28;20480;-59
2022/01/27 00:24:04;;;;;;;17.85;6.57;;;2.00;99.90;;;;;;10425597;28;20124;-61
2022/01/27 00:29:06;;;;;;;23.95;7.68;;;2.00;99.90;;;;;;10424612;28;20059;-59
2022/01/27 00:34:07;;;;;;;15.60;6.18;;;2.00;99.90;;;;;;10430476;28;20080;-61
2022/01/27 00:39:09;;;;;;;21.40;7.13;;;1.90;99.90;;;;;;10429409;28;20479;-59
2022/01/27 00:44:11;;;;;;;23.48;7.75;;;1.90;99.90;;;;;;10423466;28;20490;-60
2022/01/27 00:49:13;;;;;;;20.60;6.47;;;1.90;99.90;;;;;;10427207;28;20484;-59
2022/01/27 00:54:24;;;;;;;20.33;7.25;;;1.90;99.90;;;;;;10426629;28;20056;-61
2022/01/27 01:00:09;;;;;;;22.90;7.70;;;2.00;99.90;;;;;;10426363;28;20060;-59
2022/01/27 01:05:05;;;;;;;24.42;7.72;;;1.90;99.90;;;;;;10416233;28;20044;-59
2022/01/27 01:15:33;;;;;;;28.00;6.97;;;1.90;99.90;;;;;;10423051;28;20123;-59
2022/01/27 01:31:13;;;;;;;20.35;6.60;;;1.80;99.90;;;;;;10403285;28;20646;-59
2022/01/27 01:36:26;;;;;;;19.67;7.47;;;1.80;99.90;;;;;;10425038;28;20166;-59
2022/01/27 01:41:28;;;;;;;20.40;7.57;;;1.80;99.90;;;;;;10420754;28;20057;-59
2022/01/27 01:46:29;;;;;;;19.30;7.47;;;1.80;99.90;;;;;;10423871;28;20127;-59
2022/01/27 01:51:34;;;;;;;21.60;7.57;;;1.70;99.90;;;;;;10419963;28;20052;-59
2022/01/27 01:56:38;;;;;;;25.05;7.65;;;1.70;99.90;;;;;;10418386;28;20102;-59
2022/01/27 02:01:40;;;;;;;18.65;5.97;;;1.70;99.90;;;;;;10424888;28;20045;-59
2022/01/27 02:06:52;;;;;;;21.17;6.40;;;1.70;99.90;;;;;;10427405;28;20809;-59
2022/01/27 02:22:36;;;;;;;22.10;7.95;;;1.70;99.90;;;;;;10417310;28;20099;-59
2022/01/27 02:27:37;;;;;;;22.75;6.85;;;1.70;99.90;;;;;;10424225;28;20103;-59
2022/01/27 02:32:39;;;;;;;22.30;7.00;;;1.70;99.90;;;;;;10424412;28;20041;-59
2022/01/27 02:37:41;;;;;;;24.73;7.90;;;1.70;99.90;;;;;;10438756;28;20041;-58
2022/01/27 02:42:42;;;;;;;21.08;7.70;;;1.70;99.90;;;;;;10428279;28;20068;-58
2022/01/27 02:47:45;;;;;;;16.45;7.57;;;1.70;99.90;;;;;;10426997;28;20381;-58
2022/01/27 02:52:46;;;;;;;20.70;7.25;;;1.70;99.90;;;;;;10429576;28;20103;-58
2022/01/27 02:57:48;;;;;;;27.63;8.23;;;1.70;99.90;;;;;;10428082;28;20095;-59
2022/01/27 03:02:50;;;;;;;23.15;6.72;;;1.70;99.90;;;;;;10431585;28;20577;-58
2022/01/27 03:07:52;;;;;;;24.77;8.27;;;1.70;99.90;;;;;;10424654;28;20112;-60
2022/01/27 03:12:59;;;;;;;27.30;7.93;;;1.70;99.90;;;;;;10427678;28;20041;-59
2022/01/27 03:18:01;;;;;;;22.90;7.32;;;1.70;99.90;;;;;;10437820;28;20128;-59
2022/01/27 03:23:02;;;;;;;22.55;7.72;;;1.70;99.90;;;;;;10427025;28;20052;-61
2022/01/27 03:28:07;;;;;;;21.92;7.45;;;1.70;99.90;;;;;;10429452;28;20044;-61
2022/01/27 03:33:09;;;;;;;27.95;8.00;;;1.70;99.90;;;;;;10425347;28;20048;-59
2022/01/27 03:38:10;;;;;;;23.40;7.80;;;1.70;99.90;;;;;;10429602;28;20088;-61
2022/01/27 03:43:12;;;;;;;27.98;8.30;;;1.70;99.90;;;;;;10420996;28;20069;-61
2022/01/27 03:48:13;;;;;;;25.02;8.43;;;1.60;99.90;;;;;;10428561;28;20041;-59
2022/01/27 03:53:15;;;;;;;24.70;9.10;;;1.70;99.90;;;;;;10426548;28;20495;-59
2022/01/27 03:58:17;;;;;;;28.95;9.45;;;1.70;99.90;;;;;;10425392;28;20060;-61
2022/01/27 04:03:21;;;;;;;23.25;8.55;;;1.70;99.90;;;;;;10423838;28;20099;-59
2022/01/27 04:08:23;;;;;;;23.30;8.13;;;1.80;99.90;;;;;;10426505;28;20051;-59
2022/01/27 04:13:24;;;;;;;28.67;8.35;;;1.80;99.90;;;;;;10425847;28;20186;-59
2022/01/27 04:18:27;;;;;;;26.90;8.95;;;1.70;99.90;;;;;;10426689;28;21238;-60
2022/01/27 04:23:29;;;;;;;26.85;8.13;;;1.70;99.90;;;;;;10422985;28;20134;-60
2022/01/27 04:28:33;;;;;;;24.98;8.32;;;1.70;99.90;;;;;;10432042;28;20048;-60
2022/01/27 04:33:36;;;;;;;28.40;9.40;;;1.70;99.90;;;;;;10421744;28;20115;-60
2022/01/27 04:38:47;;;;;;;25.13;7.55;;;1.70;99.90;;;;;;10425892;28;20133;-60
2022/01/27 04:43:59;;;;;;;24.90;7.70;;;1.70;99.90;;;;;;10422131;28;20136;-60
2022/01/27 04:49:03;;;;;;;26.38;7.75;;;1.70;99.90;;;;;;10426343;28;20103;-59
2022/01/27 04:54:21;;;;;;;28.27;8.85;;;1.70;99.90;;;;;;10426103;28;20488;-60
2022/01/27 04:59:27;;;;;;;27.33;7.87;;;1.60;99.90;;;;;;10422694;28;20130;-59
2022/01/27 05:04:33;;;;;;;25.02;8.23;;;1.60;99.90;;;;;;10422095;28;20396;-61
2022/01/27 05:09:36;;;;;;;20.95;6.93;;;1.70;99.90;;;;;;10418340;28;20049;-59
2022/01/27 05:14:38;;;;;;;30.13;9.10;;;1.60;99.90;;;;;;10423349;28;20049;-59
2022/01/27 05:19:39;;;;;;;23.80;7.60;;;1.70;99.90;;;;;;10419552;28;20579;-58
2022/01/27 05:24:41;;;;;;;28.33;8.10;;;1.60;99.90;;;;;;10422421;28;20126;-61
2022/01/27 05:29:43;;;;;;;31.15;9.50;;;1.60;99.90;;;;;;10421666;28;20053;-60
2022/01/27 05:34:45;;;;;;;30.33;8.50;;;1.70;99.90;;;;;;10417821;28;20462;-59
2022/01/27 05:39:46;;;;;;;22.70;7.93;;;1.70;99.90;;;;;;10441452;28;20081;-59
2022/01/27 05:44:48;;;;;;;26.48;8.05;;;1.70;99.90;;;;;;10419519;28;20506;-60
2022/01/27 05:49:50;;;;;;;29.42;8.30;;;1.70;99.90;;;;;;10421714;28;20508;-58
2022/01/27 05:54:51;;;;;;;22.73;8.05;;;1.70;99.90;;;;;;10425533;28;20146;-58
2022/01/27 05:59:53;;;;;;;24.10;6.47;;;1.70;99.90;;;;;;10422954;28;20106;-59
2022/01/27 06:04:55;;;;;;;30.63;7.88;;;1.70;99.90;;;;;;10420792;28;20131;-58
2022/01/27 06:09:57;;;;;;;23.05;7.35;;;1.70;99.90;;;;;;10418220;28;20076;-58
2022/01/27 06:14:59;;;;;;;24.83;7.07;;;1.80;99.90;;;;;;10421610;28;20143;-59
2022/01/27 06:20:02;;;;;;;23.58;6.85;;;1.80;99.90;;;;;;10419080;28;20041;-59
2022/01/27 06:25:04;;;;;;;23.38;6.88;;;1.80;99.90;;;;;;10421068;28;20134;-59
2022/01/27 06:30:08;;;;;;;26.92;8.13;;;1.70;99.90;;;;;;10417758;28;20065;-62
2022/01/27 06:35:10;;;;;;;20.05;7.50;;;1.80;99.90;;;;;;10418161;28;20122;-60
2022/01/27 06:40:14;;;;;;;25.05;7.38;;;1.80;99.90;;;;;;10423987;28;20098;-61
2022/01/27 06:45:15;;;;;;;27.65;7.32;;;1.80;99.90;;;;;;10420665;28;20064;-61
2022/01/27 06:50:17;;;;;;;19.48;7.70;;;1.70;99.90;;;;;;10424439;28;20120;-60
2022/01/27 06:55:21;;;;;;;26.50;7.78;;;1.70;99.90;;;;;;10419210;28;20045;-61
2022/01/27 07:00:23;;;;;;;24.40;10.77;;;1.70;99.90;;;;;;10400797;28;20052;-61
2022/01/27 07:05:25;;;;;;;24.45;5.72;;;1.80;99.90;;;;;;10347952;28;20056;-59
2022/01/27 07:10:27;;;;;;;21.27;6.50;;;1.80;99.90;;;;;;10421266;28;20045;-60
2022/01/27 07:15:30;;;;;;;26.23;7.65;;;1.90;99.90;;;;;;10420001;28;20056;-64
2022/01/27 07:20:32;;;;;;;20.95;5.63;;;1.80;99.90;;;;;;10418187;28;20512;-63
2022/01/27 07:25:34;;;;;;;20.08;6.22;;;1.90;99.90;;;;;;10419579;28;20064;-63
2022/01/27 07:30:36;;;;;;;18.85;6.60;;;1.90;99.90;;;;;;10423730;28;20085;-64
2022/01/27 07:35:38;;;;;;;21.15;5.82;;;1.80;99.90;;;;;;10427828;28;20169;-64
2022/01/27 07:40:39;;;;;;;22.42;6.93;;;1.80;99.90;;;;;;10430739;28;20124;-64
2022/01/27 07:45:49;;;;;;;19.67;5.70;;;1.80;99.90;;;;;;10427483;28;20340;-64
2022/01/27 07:50:51;;;;;;;17.13;5.50;;;1.80;99.90;;;;;;10430941;28;20044;-64
2022/01/27 07:55:53;;;;;;;19.13;6.00;;;1.80;99.90;;;;;;10429302;28;20072;-64
2022/01/27 08:00:55;;;;;;;23.45;7.40;;;1.80;99.90;;;;;;10420908;28;20107;-64
2022/01/27 08:05:57;;;;;;;22.27;6.18;;;1.80;99.90;;;;;;10429545;28;20045;-64
2022/01/27 08:10:59;;;;;;;17.35;4.63;;;1.80;99.90;;;;;;10426914;28;20458;-63
2022/01/27 08:16:00;;;;;;;17.92;6.32;;;1.80;99.90;;;;;;10435463;28;20080;-63
2022/01/27 08:21:18;;;;;;;15.48;5.57;;;1.80;99.90;;;;;;10422072;28;20064;-63
2022/01/27 08:26:33;;;;;;;19.42;5.93;;;1.90;99.90;;;;;;10428345;28;20072;-64
2022/01/27 08:31:43;;;;;;;17.77;5.38;;;1.80;99.90;;;;;;10425093;28;20690;-64
2022/01/27 08:36:45;;;;;;;25.95;7.65;;;1.80;99.90;;;;;;10424765;28;20144;-64
2022/01/27 08:41:46;;;;;;;20.67;5.63;;;1.80;99.90;;;;;;10424229;28;20488;-64
2022/01/27 08:46:48;;;;;;;74.78;12.85;;;1.80;99.90;;;;;;10424197;28;20140;-63
2022/01/27 08:51:50;;;;;;;19.70;6.10;;;1.80;99.90;;;;;;10422491;28;20076;-64
2022/01/27 08:56:52;;;;;;;21.38;6.88;;;1.80;99.90;;;;;;10417123;28;20496;-64
2022/01/27 09:01:54;;;;;;;23.25;6.63;;;1.70;99.90;;;;;;10423406;28;20115;-63
2022/01/27 09:06:56;;;;;;;23.67;6.45;;;1.80;99.90;;;;;;10424584;28;20107;-63
2022/01/27 09:11:59;;;;;;;15.60;6.03;;;1.80;99.90;;;;;;10419579;28;20143;-63
2022/01/27 09:17:00;;;;;;;24.73;6.95;;;1.80;99.90;;;;;;10424994;28;20045;-63
2022/01/27 09:22:07;;;;;;;23.75;8.55;;;1.90;99.90;;;;;;10425800;28;20981;-63
2022/01/27 09:27:08;;;;;;;20.33;6.57;;;1.90;99.90;;;;;;10420053;28;20073;-63
2022/01/27 09:32:11;;;;;;;27.15;7.80;;;1.90;99.90;;;;;;10422602;28;20555;-63
2022/01/27 09:37:13;;;;;;;23.35;8.45;;;2.10;99.90;;;;;;10418391;28;20044;-63
2022/01/27 09:42:15;;;;;;;20.45;6.75;;;2.10;99.90;;;;;;10423316;28;20090;-63
2022/01/27 09:47:17;;;;;;;22.15;7.22;;;2.10;99.90;;;;;;10421382;28;20087;-63
2022/01/27 09:52:19;;;;;;;22.98;7.50;;;2.10;99.90;;;;;;10423947;28;20072;-63
2022/01/27 09:57:21;;;;;;;25.10;7.57;;;2.10;99.90;;;;;;10420080;28;20522;-63
2022/01/27 10:02:26;;;;;;;26.42;8.15;;;2.10;99.90;;;;;;10423575;28;20423;-63
2022/01/27 10:07:35;;;;;;;20.95;6.50;;;2.30;99.90;;;;;;10417712;28;20061;-63
2022/01/27 10:12:50;;;;;;;23.42;7.25;;;2.30;99.90;;;;;;10418298;28;20063;-63
2022/01/27 10:18:12;;;;;;;28.75;8.82;;;2.30;99.90;;;;;;10424034;28;20076;-63
2022/01/27 10:23:23;;;;;;;20.02;6.00;;;2.40;99.90;;;;;;10418862;28;20098;-63
2022/01/27 10:33:42;;;;;;;19.13;6.95;;;2.30;99.90;;;;;;10416761;28;20567;-63
2022/01/27 10:38:44;;;;;;;19.83;7.13;;;2.20;99.90;;;;;;10420061;28;20472;-63
2022/01/27 10:44:03;;;;;;;27.67;7.50;;;2.20;99.90;;;;;;10422616;28;20507;-63
2022/01/27 10:49:11;;;;;;;23.95;7.28;;;2.10;99.90;;;;;;10420011;28;20590;-63
2022/01/27 10:54:25;;;;;;;21.85;7.75;;;2.20;99.90;;;;;;10417529;28;20171;-63
2022/01/27 10:59:28;;;;;;;22.15;6.25;;;2.10;99.90;;;;;;10418855;28;20543;-63
2022/01/27 11:04:43;;;;;;;16.70;6.55;;;2.20;99.90;;;;;;10424027;28;20120;-63
2022/01/27 11:09:45;;;;;;;27.30;7.22;;;2.20;99.90;;;;;;10429162;28;20045;-63
2022/01/27 11:14:49;;;;;;;25.23;7.05;;;2.20;99.90;;;;;;10427467;28;20139;-63
2022/01/27 11:30:27;;;;;;;19.05;5.90;;;2.20;99.90;;;;;;10428019;28;20106;-63
2022/01/27 11:35:29;;;;;;;26.27;6.57;;;2.30;99.90;;;;;;10429418;28;20551;-63
2022/01/27 11:40:47;;;;;;;21.85;6.78;;;2.30;99.90;;;;;;10432285;28;20134;-63
2022/01/27 11:45:53;;;;;;;21.45;8.05;;;2.20;99.90;;;;;;10429436;28;20442;-63
2022/01/27 11:51:15;;;;;;;23.03;6.33;;;2.20;99.90;;;;;;10421346;28;20136;-63
2022/01/27 11:56:31;;;;;;;17.98;6.28;;;2.20;99.90;;;;;;10420655;28;20044;-63
2022/01/27 12:01:37;;;;;;;19.02;7.05;;;2.20;99.90;;;;;;10421989;28;20068;-63
2022/01/27 12:06:48;;;;;;;23.35;7.65;;;2.20;99.90;;;;;;10425556;28;20443;-62
2022/01/27 12:12:03;;;;;;;22.75;5.82;;;2.10;99.90;;;;;;10424774;28;20052;-63
2022/01/27 12:23:20;;;;;;;19.92;5.57;;;2.00;99.90;;;;;;10423086;28;20048;-62
2022/01/27 12:28:34;;;;;;;27.85;7.32;;;2.00;99.90;;;;;;10423457;28;20049;-63
2022/01/27 12:33:35;;;;;;;16.98;5.93;;;2.00;99.90;;;;;;10423843;28;20115;-63
2022/01/27 12:38:38;;;;;;;15.30;6.05;;;2.00;99.90;;;;;;10422172;28;20126;-63
2022/01/27 12:43:40;;;;;;;15.82;5.18;;;2.10;99.90;;;;;;10424345;28;20041;-63
2022/01/27 12:48:49;;;;;;;19.38;6.53;;;2.00;99.90;;;;;;10423938;28;20053;-62
2022/01/27 12:54:09;;;;;;;21.92;6.10;;;2.10;99.90;;;;;;10425554;28;20416;-62
2022/01/27 12:59:14;;;;;;;22.27;6.28;;;2.10;99.90;;;;;;10426235;28;20820;-63
2022/01/27 13:04:17;;;;;;;22.33;6.38;;;2.10;99.90;;;;;;10422440;28;20072;-63
2022/01/27 13:09:18;;;;;;;22.33;7.07;;;2.20;99.90;;;;;;10419068;28;20076;-62
2022/01/27 13:14:20;;;;;;;17.95;6.05;;;2.30;99.90;;;;;;10424540;28;20091;-63
2022/01/27 13:19:42;;;;;;;17.83;6.22;;;2.40;99.90;;;;;;10419172;28;20041;-63
2022/01/27 13:24:48;;;;;;;19.67;6.45;;;2.40;99.90;;;;;;10417908;28;21087;-63
2022/01/27 13:29:50;;;;;;;21.77;7.13;;;2.40;99.90;;;;;;10428294;28;20053;-62
2022/01/27 13:34:52;;;;;;;22.77;7.45;;;2.40;99.90;;;;;;10417644;28;20099;-63
2022/01/27 13:44:58;;;;;;;28.02;7.55;;;2.40;99.90;;;;;;10421636;28;20468;-62
2022/01/27 13:50:15;;;;;;;20.27;6.28;;;2.40;99.90;;;;;;10423925;28;20052;-62
2022/01/27 13:55:22;;;;;;;25.63;7.18;;;2.40;99.90;;;;;;10419602;28;20131;-62
2022/01/27 14:00:42;;;;;;;24.63;7.07;;;2.30;99.90;;;;;;10419915;28;20053;-62
2022/01/27 14:06:00;;;;;;;25.58;7.53;;;2.40;99.90;;;;;;10414297;28;20048;-62
2022/01/27 14:11:03;;;;;;;22.38;8.10;;;2.40;99.90;;;;;;10420509;28;20056;-62
2022/01/27 14:16:05;;;;;;;24.80;8.13;;;2.50;99.90;;;;;;10412082;28;20052;-62
2022/01/27 14:21:07;;;;;;;22.13;7.57;;;2.50;99.90;;;;;;10418235;28;20059;-62
2022/01/27 14:26:30;;;;;;;27.08;9.20;;;2.60;99.90;;;;;;10419024;28;20488;-62
2022/01/27 14:31:33;;;;;;;24.70;9.27;;;2.60;99.90;;;;;;10421068;28;20065;-62
2022/01/27 14:36:41;;;;;;;28.15;8.77;;;2.70;99.90;;;;;;10433189;28;20076;-62
2022/01/27 14:41:43;;;;;;;28.88;9.27;;;2.70;99.90;;;;;;10427521;28;20053;-62
2022/01/27 14:46:47;;;;;;;26.25;8.45;;;2.70;99.90;;;;;;10435775;28;20045;-62
2022/01/27 14:51:50;;;;;;;24.13;8.48;;;2.80;99.90;;;;;;10430639;28;20046;-62
2022/01/27 14:56:52;;;;;;;25.63;8.13;;;2.80;99.90;;;;;;10424872;28;20391;-62
2022/01/27 15:01:54;;;;;;;20.73;7.95;;;2.80;99.90;;;;;;10410678;28;20412;-62
2022/01/27 15:06:57;;;;;;;21.02;8.57;;;2.80;99.90;;;;;;10431434;28;20053;-62
2022/01/27 15:11:58;;;;;;;24.38;7.28;;;2.90;99.90;;;;;;10426300;28;20069;-62
2022/01/27 15:22:28;;;;;;;21.95;6.90;;;3.00;99.90;;;;;;10431223;28;20063;-63
2022/01/27 15:27:30;;;;;;;20.30;6.63;;;2.90;99.90;;;;;;10425296;28;20045;-62
2022/01/27 15:32:31;;;;;;;21.58;7.43;;;3.00;99.90;;;;;;10425226;28;20103;-62
2022/01/27 15:37:33;;;;;;;19.50;7.32;;;3.00;99.90;;;;;;10425781;28;20053;-62
2022/01/27 15:42:35;;;;;;;25.17;8.18;;;3.00;99.90;;;;;;10425118;28;20676;-62
2022/01/27 15:47:38;;;;;;;19.05;7.50;;;3.00;99.90;;;;;;10428086;28;20037;-63
2022/01/27 15:52:41;;;;;;;18.85;6.82;;;2.90;99.90;;;;;;10427138;28;20564;-63
2022/01/27 15:57:43;;;;;;;22.60;6.97;;;2.90;99.90;;;;;;10422038;28;20520;-62
2022/01/27 16:02:45;;;;;;;18.38;6.90;;;2.90;99.90;;;;;;10428569;28;20037;-63
2022/01/27 16:07:49;;;;;;;19.40;6.35;;;2.90;99.90;;;;;;10432632;28;20403;-63
2022/01/27 16:12:53;;;;;;;20.00;7.05;;;2.90;99.90;;;;;;10440639;28;20526;-63
2022/01/27 16:17:55;;;;;;;17.88;6.47;;;2.90;99.90;;;;;;10426675;28;20044;-62
2022/01/27 16:22:58;;;;;;;17.73;6.10;;;2.90;99.90;;;;;;10424733;28;20048;-63
2022/01/27 16:28:00;;;;;;;18.05;6.80;;;2.90;99.90;;;;;;10424899;28;20056;-61
2022/01/27 16:33:02;;;;;;;13.88;5.78;;;3.00;99.90;;;;;;10425746;28;20037;-62
2022/01/27 16:38:04;;;;;;;19.35;6.40;;;3.00;99.90;;;;;;10426307;28;20114;-61
2022/01/27 16:43:06;;;;;;;16.13;5.50;;;3.00;99.90;;;;;;10413998;28;20128;-62
2022/01/27 16:48:12;;;;;;;16.83;5.15;;;2.90;99.90;;;;;;10424352;28;20137;-62
2022/01/27 16:53:14;;;;;;;15.45;5.28;;;3.00;99.90;;;;;;10428702;28;20049;-61
2022/01/27 16:58:16;;;;;;;22.42;6.13;;;3.00;99.90;;;;;;10416628;28;20052;-61
2022/01/27 17:03:18;;;;;;;17.27;5.75;;;3.00;99.90;;;;;;10428834;28;20056;-61
2022/01/27 17:08:21;;;;;;;15.15;6.10;;;2.90;99.90;;;;;;10416390;28;20045;-63
2022/01/27 17:13:23;;;;;;;15.25;5.55;;;3.00;99.90;;;;;;10424665;28;20059;-62
2022/01/27 17:18:25;;;;;;;18.80;6.85;;;3.00;99.90;;;;;;10423363;28;20076;-61
2022/01/27 17:23:29;;;;;;;14.90;5.72;;;3.00;99.90;;;;;;10421111;28;20044;-62
2022/01/27 17:28:32;;;;;;;14.63;5.47;;;3.10;99.90;;;;;;10422419;28;20122;-61
2022/01/27 17:33:34;;;;;;;11.45;4.53;;;3.10;99.90;;;;;;10420927;28;20044;-62
2022/01/27 17:38:37;;;;;;;13.25;5.25;;;3.20;99.90;;;;;;10437073;28;20037;-62
2022/01/27 17:43:47;;;;;;;12.57;3.78;;;3.20;99.90;;;;;;10422877;28;20059;-62
2022/01/27 17:48:49;;;;;;;9.43;4.40;;;3.30;99.90;;;;;;10426587;28;20053;-62
2022/01/27 17:53:51;;;;;;;9.55;3.70;;;3.40;99.90;;;;;;10421713;28;20044;-63
2022/01/27 17:58:53;;;;;;;13.65;5.55;;;3.50;99.90;;;;;;10421421;28;20051;-61
2022/01/27 18:03:55;;;;;;;9.30;3.95;;;3.50;99.90;;;;;;10418982;28;20037;-62
2022/01/27 18:08:57;;;;;;;8.75;3.30;;;3.50;99.90;;;;;;10422172;28;20053;-62
2022/01/27 18:14:00;;;;;;;10.27;3.92;;;3.60;99.90;;;;;;10424568;28;20099;-62
2022/01/27 18:19:02;;;;;;;10.30;3.70;;;3.60;99.90;;;;;;10416383;28;20450;-62
2022/01/27 18:24:05;;;;;;;8.27;3.53;;;3.60;99.90;;;;;;10425059;28;20456;-62
2022/01/27 18:29:07;;;;;;;8.38;3.63;;;3.60;99.90;;;;;;10419891;28;20073;-61
2022/01/27 18:34:08;;;;;;;11.95;4.43;;;3.60;99.90;;;;;;10420049;28;20103;-62
2022/01/27 18:39:13;;;;;;;7.60;3.72;;;3.50;99.90;;;;;;10421527;28;20052;-61
2022/01/27 18:44:15;;;;;;;7.00;3.40;;;3.50;99.90;;;;;;10418729;28;20483;-62
2022/01/27 18:49:19;;;;;;;9.15;3.35;;;3.50;99.90;;;;;;10412954;28;20468;-60
2022/01/27 18:54:20;;;;;;;7.18;3.63;;;3.40;99.90;;;;;;10418619;28;20107;-61
2022/01/27 18:59:23;;;;;;;24.35;5.00;;;3.50;99.90;;;;;;10407012;28;20053;-61
2022/01/27 19:04:25;;;;;;;7.90;3.88;;;3.50;99.90;;;;;;10404457;28;20060;-60
2022/01/27 19:09:27;;;;;;;14.00;3.92;;;3.70;99.90;;;;;;10409511;28;20041;-62
2022/01/27 19:14:28;;;;;;;15.27;4.35;;;3.70;99.90;;;;;;10421282;28;20462;-61
2022/01/27 19:19:30;;;;;;;7.38;3.13;;;3.70;99.90;;;;;;10418478;28;20068;-61
2022/01/27 19:24:32;;;;;;;7.68;3.67;;;3.80;99.90;;;;;;10422566;28;20079;-61
2022/01/27 19:29:39;;;;;;;6.75;2.58;;;3.70;99.90;;;;;;10427329;28;20052;-61
2022/01/27 19:34:40;;;;;;;7.30;2.92;;;3.70;99.90;;;;;;10421430;28;20136;-60
2022/01/27 19:39:42;;;;;;;5.95;2.72;;;3.70;99.90;;;;;;10425481;28;20041;-61
2022/01/27 19:44:44;;;;;;;8.98;3.67;;;3.80;99.90;;;;;;10440784;28;20048;-61
2022/01/27 19:49:46;;;;;;;9.18;3.03;;;3.80;99.90;;;;;;10419730;28;20041;-62
2022/01/27 19:54:49;;;;;;;7.90;2.92;;;3.70;99.90;;;;;;10427673;28;20495;-62
2022/01/27 19:59:52;;;;;;;6.38;3.05;;;3.70;99.90;;;;;;10427187;28;20053;-60
2022/01/27 20:04:58;;;;;;;13.25;4.05;;;3.70;99.90;;;;;;10423065;28;20194;-61
2022/01/27 20:10:00;;;;;;;8.27;3.55;;;3.70;99.90;;;;;;10429269;28;20233;-61
2022/01/27 20:15:03;;;;;;;7.70;3.05;;;3.70;99.90;;;;;;10429290;28;20067;-60
2022/01/27 20:20:05;;;;;;;12.65;3.13;;;3.70;99.90;;;;;;10426091;28;20060;-61
2022/01/27 20:25:08;;;;;;;8.40;2.80;;;3.80;99.90;;;;;;10429184;28;20064;-61
2022/01/27 20:30:13;;;;;;;8.63;3.15;;;3.80;99.90;;;;;;10423644;28;20033;-61
2022/01/27 20:35:16;;;;;;;5.82;2.78;;;3.80;99.90;;;;;;10424528;28;20625;-63
2022/01/27 20:40:18;;;;;;;5.63;2.65;;;3.90;99.90;;;;;;10426441;28;20488;-62
2022/01/27 20:45:25;;;;;;;8.38;2.38;;;3.90;99.90;;;;;;10424481;28;20110;-62
2022/01/27 20:50:27;;;;;;;7.45;3.10;;;4.00;99.90;;;;;;10431702;28;20056;-62
2022/01/27 20:55:30;;;;;;;6.43;3.25;;;4.10;99.90;;;;;;10418828;28;20123;-61
2022/01/27 21:00:34;;;;;;;6.47;2.10;;;4.00;99.90;;;;;;10410976;28;20041;-61
2022/01/27 21:05:37;;;;;;;6.60;3.10;;;3.90;99.90;;;;;;10421002;28;20065;-60
2022/01/27 21:10:39;;;;;;;11.38;2.60;;;3.90;99.90;;;;;;10421840;28;20052;-62
2022/01/27 21:15:40;;;;;;;8.45;3.15;;;3.80;99.90;;;;;;10419771;28;20328;-61
2022/01/27 21:20:42;;;;;;;6.68;2.90;;;3.80;99.90;;;;;;10431465;28;20049;-62
2022/01/27 21:25:45;;;;;;;7.20;2.33;;;3.90;99.90;;;;;;10421669;28;20060;-61
2022/01/27 21:30:47;;;;;;;4.82;2.30;;;4.00;99.90;;;;;;10416205;28;20087;-62
2022/01/27 21:35:49;;;;;;;6.40;3.05;;;4.00;99.90;;;;;;10422173;28;20052;-62
2022/01/27 21:40:51;;;;;;;7.53;2.88;;;4.20;99.90;;;;;;10422033;28;20090;-62
2022/01/27 21:45:52;;;;;;;7.03;2.95;;;4.20;99.90;;;;;;10417461;28;20518;-60
2022/01/27 21:50:54;;;;;;;5.50;2.40;;;4.40;99.90;;;;;;10420740;28;20106;-61
2022/01/27 21:55:56;;;;;;;6.47;3.00;;;4.50;99.90;;;;;;10420402;28;20045;-62
2022/01/27 22:00:58;;;;;;;3.67;1.88;;;4.60;99.90;;;;;;10418444;28;20061;-61
2022/01/27 22:06:00;;;;;;;5.57;2.10;;;4.70;99.90;;;;;;10419346;28;20087;-62
2022/01/27 22:11:02;;;;;;;5.68;2.50;;;4.70;99.90;;;;;;10420547;28;20514;-61
2022/01/27 22:16:04;;;;;;;6.05;2.88;;;4.60;99.90;;;;;;10422727;28;20093;-62
2022/01/27 22:21:06;;;;;;;4.18;1.83;;;4.60;99.90;;;;;;10421828;28;20056;-62
2022/01/27 22:26:08;;;;;;;6.60;2.58;;;4.60;99.90;;;;;;10418403;28;20052;-60
2022/01/27 22:31:10;;;;;;;7.93;2.20;;;4.60;99.90;;;;;;10414964;28;20045;-61
2022/01/27 22:36:13;;;;;;;8.30;2.17;;;4.50;99.90;;;;;;10426141;28;20049;-62
2022/01/27 22:41:15;;;;;;;3.83;2.13;;;4.50;99.90;;;;;;10433934;28;20048;-62
2022/01/27 22:46:16;;;;;;;3.22;2.05;;;4.50;99.90;;;;;;10417368;28;20060;-61
2022/01/27 22:51:18;;;;;;;8.20;2.30;;;4.40;99.90;;;;;;10420439;28;20053;-61
2022/01/27 22:56:20;;;;;;;8.35;2.05;;;4.40;99.90;;;;;;10421672;28;20049;-62
2022/01/27 23:01:21;;;;;;;5.90;1.52;;;4.50;99.90;;;;;;10426395;28;20079;-61
2022/01/27 23:06:23;;;;;;;4.97;1.23;;;4.70;99.90;;;;;;10429015;28;20068;-62
2022/01/27 23:11:26;;;;;;;1.67;0.65;;;5.20;99.90;;;;;;10434884;28;20059;-61
2022/01/27 23:16:45;;;;;;;1.98;0.60;;;5.60;99.90;;;;;;10427909;28;20579;-61
2022/01/27 23:21:58;;;;;;;5.00;0.80;;;5.90;99.90;;;;;;10425246;28;20068;-62
2022/01/27 23:27:04;;;;;;;3.85;1.17;;;6.00;99.90;;;;;;10431262;28;20140;-61
2022/01/27 23:32:06;;;;;;;2.93;1.20;;;6.10;99.90;;;;;;10423821;28;20072;-62
2022/01/27 23:37:25;;;;;;;5.03;0.70;;;6.30;99.90;;;;;;10429725;28;20509;-62
2022/01/27 23:48:00;;;;;;;4.55;0.80;;;6.20;99.90;;;;;;10424483;28;20069;-60
2022/01/27 23:54:14;;;;;;;1.52;0.63;;;6.20;99.90;;;;;;10425862;28;20150;-60
2022/01/27 23:58:38;;;;;;;4.22;0.50;;;6.20;99.90;;;;;;10422496;28;20068;-61
